Home

Weather

KSLC Current Conditions

KSLC 211754Z VRB04KT 10SM FEW070 FEW150 BKN240 23/08 A2989 RMK AO2 SLP080 CB DSNT E AND SE TCU DSNT NE T02330078 10233 20122 58004

KSLC Aviation Forecast

TAF KSLC 211733Z 2118/2224 32007KT P6SM FEW090 BKN200 FM212200 34010KT P6SM VCSH SCT090 BKN150 FM220400 16007KT P6SM BKN100 BKN150 FM221900 30007KT P6SM BKN080 OVC140


74° F
Partly Cloudy
Partly Cloudy

Mostly Cloudy
Monday
Mostly Cloudy
High 78°/Low 56°
20%
Partly Cloudy
Tuesday
Partly Cloudy
High 75°/Low 55°
20%
Partly Cloudy
Wednesday
Partly Cloudy
High 75°/Low 57°
20%
Clear
Thursday
Clear
High 82°/Low 58°
20%
Clear
Friday
Clear
High 87°/Low 60°
0%
Clear
Saturday
Clear
High 87°/Low 60°
0%